createdAt,value
2017-12-27T00:02:27.459Z,109.97
2017-12-27T00:05:00.881Z,94.63
2017-12-27T00:07:34.863Z,95.40
2017-12-27T00:10:08.082Z,97.87
2017-12-27T00:12:41.940Z,97.30
2017-12-27T00:15:15.918Z,95.53
2017-12-27T00:17:49.048Z,116.13
2017-12-27T00:20:22.271Z,102.90
2017-12-27T00:22:56.276Z,100.97
2017-12-27T00:25:29.591Z,104.70
2017-12-27T00:34:01.792Z,85.73
2017-12-27T00:36:30.128Z,99.90
2017-12-27T00:38:57.910Z,84.07
2017-12-27T00:41:25.466Z,89.07
2017-12-27T00:43:53.881Z,98.07
2017-12-27T00:46:22.718Z,92.20
2017-12-27T00:48:50.683Z,99.47
2017-12-27T00:51:19.064Z,92.60
2017-12-27T00:53:49.288Z,99.50
2017-12-27T00:56:17.653Z,106.60
2017-12-27T00:58:45.991Z,99.60
2017-12-27T01:01:14.787Z,98.73
2017-12-27T01:03:42.982Z,91.77
2017-12-27T01:06:11.188Z,87.27
2017-12-27T01:08:39.423Z,87.87
2017-12-27T01:11:07.724Z,79.07
2017-12-27T01:13:35.384Z,98.13
2017-12-27T01:16:03.389Z,94.70
2017-12-27T01:18:31.854Z,79.40
2017-12-27T01:20:59.420Z,78.77
2017-12-27T01:23:27.107Z,80.63
2017-12-27T01:25:54.845Z,80.10
2017-12-27T01:28:23.531Z,89.50
2017-12-27T01:30:51.142Z,74.77
2017-12-27T01:33:19.552Z,81.77
2017-12-27T01:35:47.082Z,77.03
2017-12-27T01:38:15.304Z,71.23
2017-12-27T01:40:44.147Z,70.40
2017-12-27T01:43:12.370Z,75.07
2017-12-27T01:45:40.705Z,59.20
2017-12-27T01:48:09.428Z,61.17
2017-12-27T01:50:37.038Z,59.43
2017-12-27T01:53:04.611Z,57.70
2017-12-27T01:55:32.158Z,63.60
2017-12-27T01:57:59.695Z,60.37
2017-12-27T02:00:27.318Z,60.10
2017-12-27T02:02:55.798Z,67.13
2017-12-27T02:05:23.729Z,72.73
2017-12-27T02:07:51.268Z,72.97
2017-12-27T02:10:19.338Z,77.63
2017-12-27T02:12:46.926Z,67.73
2017-12-27T02:15:15.039Z,67.03
2017-12-27T02:17:42.597Z,65.50
2017-12-27T02:20:11.067Z,71.93
2017-12-27T02:22:38.608Z,69.37
2017-12-27T02:25:08.029Z,63.33
2017-12-27T02:27:35.842Z,68.43
2017-12-27T02:30:03.505Z,70.40
2017-12-27T02:32:33.518Z,64.90
2017-12-27T02:35:01.990Z,66.10
2017-12-27T02:37:29.519Z,69.70
2017-12-27T02:40:26.761Z,70.43
2017-12-27T02:42:54.416Z,67.40
2017-12-27T02:45:22.609Z,72.90
2017-12-27T02:47:50.191Z,62.17
2017-12-27T02:50:17.769Z,74.67
2017-12-27T02:52:46.150Z,71.13
2017-12-27T02:55:15.959Z,62.67
2017-12-27T02:57:44.428Z,64.87
2017-12-27T03:00:12.233Z,69.50
2017-12-27T03:02:42.130Z,64.00
2017-12-27T03:05:09.653Z,74.67
2017-12-27T03:07:37.933Z,67.03
2017-12-27T03:10:06.324Z,63.40
2017-12-27T03:12:35.521Z,69.77
2017-12-27T03:15:03.193Z,64.47
2017-12-27T03:17:31.553Z,68.07
2017-12-27T03:19:59.097Z,66.90
2017-12-27T03:22:26.650Z,80.33
2017-12-27T03:24:54.827Z,70.93
2017-12-27T03:27:22.445Z,63.40
2017-12-27T03:29:50.884Z,62.57
2017-12-27T03:32:18.409Z,63.97
2017-12-27T03:34:46.722Z,67.20
2017-12-27T03:37:14.548Z,59.87
2017-12-27T03:39:42.326Z,70.17
2017-12-27T03:42:10.474Z,69.47
2017-12-27T03:44:38.026Z,68.60
2017-12-27T03:47:06.098Z,63.77
2017-12-27T03:49:34.451Z,72.40
2017-12-27T03:52:02.550Z,64.43
2017-12-27T03:54:32.243Z,64.90
2017-12-27T03:56:59.791Z,61.80
2017-12-27T03:59:27.352Z,66.70
2017-12-27T04:01:55.386Z,57.27
2017-12-27T04:04:22.922Z,62.27
2017-12-27T04:06:50.844Z,61.63
2017-12-27T04:09:19.904Z,57.67
2017-12-27T04:11:47.441Z,55.10
2017-12-27T04:14:15.543Z,50.07
2017-12-27T04:16:43.135Z,64.07
2017-12-27T04:19:10.689Z,58.67
2017-12-27T04:21:38.320Z,61.03
2017-12-27T04:24:06.315Z,51.13
2017-12-27T04:26:34.347Z,58.53
2017-12-27T04:29:01.929Z,58.40
2017-12-27T04:31:30.123Z,52.23
2017-12-27T04:33:58.188Z,56.53
2017-12-27T04:36:25.781Z,54.23
2017-12-27T04:38:53.975Z,65.70
2017-12-27T04:41:23.155Z,58.67
2017-12-27T04:43:50.770Z,58.10
2017-12-27T04:46:18.802Z,62.63
2017-12-27T04:48:47.096Z,60.67
2017-12-27T04:51:14.880Z,61.23
2017-12-27T04:53:42.459Z,63.37
2017-12-27T04:56:10.915Z,66.93
2017-12-27T04:58:38.471Z,58.27
2017-12-27T05:01:06.400Z,63.43
2017-12-27T05:03:34.691Z,56.40
2017-12-27T05:06:02.848Z,70.03
2017-12-27T05:08:31.268Z,58.53
2017-12-27T05:10:58.830Z,58.33
2017-12-27T05:13:26.583Z,58.53
2017-12-27T05:15:54.183Z,54.90
2017-12-27T05:18:22.668Z,62.73
2017-12-27T05:20:50.193Z,69.30
2017-12-27T05:23:17.781Z,61.00
2017-12-27T05:25:46.335Z,60.73
2017-12-27T05:28:13.932Z,68.60
2017-12-27T05:30:43.433Z,63.67
2017-12-27T05:33:10.992Z,61.47
2017-12-27T05:35:38.873Z,59.17
2017-12-27T05:38:07.048Z,63.93
2017-12-27T05:40:36.126Z,57.93
2017-12-27T05:43:04.239Z,55.73
2017-12-27T05:45:31.813Z,46.70
2017-12-27T05:48:00.180Z,41.53
2017-12-27T05:50:27.889Z,43.57
2017-12-27T05:52:55.537Z,37.03
2017-12-27T05:55:23.439Z,36.30
2017-12-27T05:57:51.364Z,43.07
2017-12-27T06:00:19.539Z,55.43
2017-12-27T06:02:47.864Z,40.23
2017-12-27T06:05:16.084Z,46.17
2017-12-27T06:07:44.354Z,41.90
2017-12-27T06:10:13.107Z,41.77
2017-12-27T06:12:41.461Z,38.57
2017-12-27T06:15:09.944Z,41.63
2017-12-27T06:17:38.401Z,36.87
2017-12-27T06:20:05.970Z,30.00
2017-12-27T06:22:34.026Z,38.57
2017-12-27T06:25:01.955Z,33.77
2017-12-27T06:27:30.802Z,31.40
2017-12-27T06:29:59.165Z,37.87
2017-12-27T06:32:28.513Z,31.17
2017-12-27T06:34:56.022Z,34.57
2017-12-27T06:37:23.638Z,43.57
2017-12-27T06:39:51.223Z,32.37
2017-12-27T06:42:19.242Z,32.73
2017-12-27T06:44:47.667Z,29.20
2017-12-27T06:47:15.254Z,35.90
2017-12-27T06:49:43.603Z,28.70
2017-12-27T06:52:11.164Z,30.90
2017-12-27T06:54:39.099Z,33.50
2017-12-27T06:57:07.138Z,31.17
2017-12-27T06:59:34.700Z,32.30
2017-12-27T07:02:02.269Z,33.57
2017-12-27T07:04:29.793Z,34.60
2017-12-27T07:06:58.881Z,31.63
2017-12-27T07:09:26.456Z,28.37
2017-12-27T07:11:55.544Z,31.17
2017-12-27T07:14:23.892Z,33.60
2017-12-27T07:16:52.064Z,38.77
2017-12-27T07:19:20.369Z,34.80
2017-12-27T07:21:48.003Z,36.97
2017-12-27T07:24:16.183Z,34.93
2017-12-27T07:26:44.718Z,32.20
2017-12-27T07:29:13.923Z,38.47
2017-12-27T07:31:41.945Z,50.53
2017-12-27T07:34:09.644Z,37.97
2017-12-27T07:36:38.065Z,40.40
2017-12-27T07:39:06.887Z,42.07
2017-12-27T07:41:36.202Z,49.27
2017-12-27T07:44:03.756Z,45.67
2017-12-27T07:46:32.528Z,46.60
2017-12-27T07:49:01.477Z,40.37
2017-12-27T07:51:30.069Z,43.67
2017-12-27T07:53:58.373Z,48.60
2017-12-27T07:56:25.893Z,40.67
2017-12-27T07:58:53.445Z,42.77
2017-12-27T08:01:21.428Z,46.80
2017-12-27T08:03:48.974Z,46.60
2017-12-27T08:06:16.505Z,47.27
2017-12-27T08:08:44.927Z,41.23
2017-12-27T08:11:13.462Z,54.03
2017-12-27T08:13:42.600Z,42.90
2017-12-27T08:16:10.842Z,51.40
2017-12-27T08:18:38.720Z,62.57
2017-12-27T08:21:07.295Z,53.00
2017-12-27T08:23:34.864Z,49.80
2017-12-27T08:26:02.435Z,57.53
2017-12-27T08:28:31.666Z,43.50
2017-12-27T08:30:59.210Z,46.60
2017-12-27T08:33:26.775Z,43.67
2017-12-27T08:35:54.495Z,33.83
2017-12-27T08:38:22.651Z,32.10
2017-12-27T08:40:50.234Z,42.27
2017-12-27T08:43:19.042Z,35.50
2017-12-27T08:45:47.298Z,36.93
2017-12-27T08:48:15.670Z,40.30
2017-12-27T08:50:43.254Z,35.93
2017-12-27T08:53:11.040Z,30.20
2017-12-27T08:55:38.598Z,30.30
2017-12-27T08:58:06.759Z,38.63
2017-12-27T09:00:35.157Z,39.83
2017-12-27T09:03:02.734Z,38.20
2017-12-27T09:05:30.910Z,50.17
2017-12-27T09:07:58.985Z,49.90
2017-12-27T09:10:26.563Z,40.20
2017-12-27T09:12:55.492Z,33.73
2017-12-27T09:15:24.137Z,31.73
2017-12-27T09:17:52.388Z,33.03
2017-12-27T09:20:19.972Z,32.17
2017-12-27T09:22:47.524Z,30.53
2017-12-27T09:25:15.412Z,33.53
2017-12-27T09:27:43.483Z,28.20
2017-12-27T09:30:12.285Z,34.93
2017-12-27T09:32:40.975Z,33.77
2017-12-27T09:35:09.931Z,33.70
2017-12-27T09:37:38.437Z,33.70
2017-12-27T09:40:07.868Z,28.43
2017-12-27T09:42:35.459Z,29.77
2017-12-27T09:45:03.069Z,28.80
2017-12-27T09:47:31.285Z,26.93
2017-12-27T09:49:59.863Z,23.00
2017-12-27T09:52:27.471Z,23.70
2017-12-27T09:54:56.681Z,31.40
2017-12-27T09:57:26.449Z,25.73
2017-12-27T09:59:54.360Z,23.20
2017-12-27T10:02:21.918Z,25.10
2017-12-27T10:04:49.538Z,26.00
2017-12-27T10:07:17.193Z,32.17
2017-12-27T10:09:44.832Z,28.53
2017-12-27T10:12:13.150Z,28.50
2017-12-27T10:14:41.466Z,30.83
2017-12-27T10:17:09.039Z,28.83
2017-12-27T10:19:37.449Z,25.23
2017-12-27T10:22:05.169Z,24.77
2017-12-27T10:24:33.492Z,22.03
2017-12-27T10:27:01.060Z,26.37
2017-12-27T10:29:28.645Z,23.33
2017-12-27T10:31:56.183Z,23.00
2017-12-27T10:34:23.758Z,21.57
2017-12-27T10:36:51.432Z,24.23
2017-12-27T10:39:19.039Z,22.90
2017-12-27T10:41:46.600Z,21.33
2017-12-27T10:44:14.171Z,23.23
2017-12-27T10:46:41.760Z,18.73
2017-12-27T10:49:09.305Z,18.30
2017-12-27T10:51:36.863Z,14.87
2017-12-27T10:54:04.391Z,16.63
2017-12-27T10:56:31.946Z,16.90
2017-12-27T10:58:59.498Z,13.40
2017-12-27T11:01:27.042Z,11.90
2017-12-27T11:03:54.549Z,14.63
2017-12-27T11:06:22.103Z,11.23
2017-12-27T11:08:49.663Z,11.27
2017-12-27T11:11:17.305Z,11.53
2017-12-27T11:13:44.906Z,9.93
2017-12-27T11:16:12.441Z,8.63
2017-12-27T11:18:39.997Z,13.93
2017-12-27T11:21:07.873Z,9.70
2017-12-27T11:23:35.510Z,13.60
2017-12-27T11:26:03.808Z,7.83
2017-12-27T11:28:31.325Z,6.53
2017-12-27T11:30:58.930Z,7.43
2017-12-27T11:33:26.469Z,7.77
2017-12-27T11:35:54.020Z,7.00
2017-12-27T11:38:22.330Z,8.60
2017-12-27T11:40:49.842Z,5.80
2017-12-27T11:43:17.415Z,6.80
2017-12-27T11:45:45.707Z,4.40
2017-12-27T11:48:13.284Z,3.93
2017-12-27T11:50:40.807Z,3.40
2017-12-27T11:53:09.111Z,4.27
2017-12-27T11:55:36.661Z,5.13
2017-12-27T11:58:04.213Z,3.83
2017-12-27T12:00:31.832Z,3.00
2017-12-27T12:02:59.421Z,3.97
2017-12-27T12:05:27.754Z,3.80
2017-12-27T12:07:55.286Z,3.20
2017-12-27T12:10:22.893Z,6.17
2017-12-27T12:12:50.455Z,3.90
2017-12-27T12:15:17.989Z,4.17
2017-12-27T12:17:45.599Z,6.13
2017-12-27T12:20:13.139Z,4.30
2017-12-27T12:22:40.707Z,4.13
2017-12-27T12:25:08.387Z,6.83
2017-12-27T12:27:35.958Z,4.57
2017-12-27T12:30:04.023Z,4.53
2017-12-27T12:32:32.315Z,7.40
2017-12-27T12:34:59.874Z,6.10
2017-12-27T12:37:27.422Z,8.50
2017-12-27T12:39:55.726Z,7.70
2017-12-27T12:42:23.291Z,5.33
2017-12-27T12:44:50.803Z,8.50
2017-12-27T12:47:18.370Z,4.47
2017-12-27T12:49:45.933Z,5.33
2017-12-27T12:52:13.464Z,4.53
2017-12-27T12:54:41.051Z,5.53
2017-12-27T12:57:09.351Z,5.73
2017-12-27T12:59:36.866Z,4.77
2017-12-27T13:02:05.958Z,5.83
2017-12-27T13:04:33.515Z,8.83
2017-12-27T13:07:01.066Z,4.93
2017-12-27T13:09:28.583Z,5.07
2017-12-27T13:11:56.168Z,7.50
2017-12-27T13:14:23.744Z,8.60
2017-12-27T13:16:51.298Z,4.77
2017-12-27T13:19:18.850Z,5.70
2017-12-27T13:21:46.426Z,5.47
2017-12-27T13:24:14.054Z,5.60
2017-12-27T13:26:41.595Z,6.30
2017-12-27T13:29:09.142Z,9.13
2017-12-27T13:31:36.702Z,17.67
2017-12-27T13:34:05.024Z,7.67
2017-12-27T13:36:32.532Z,7.13
2017-12-27T13:39:00.071Z,5.70
2017-12-27T13:41:27.616Z,5.20
2017-12-27T13:43:55.202Z,5.40
2017-12-27T13:46:22.768Z,5.17
2017-12-27T13:48:51.086Z,5.53
2017-12-27T13:51:18.650Z,6.77
2017-12-27T13:53:46.187Z,8.00
2017-12-27T13:56:13.761Z,6.93
2017-12-27T13:58:41.346Z,7.63
2017-12-27T14:01:08.905Z,4.73
2017-12-27T14:03:36.453Z,3.30
2017-12-27T14:06:03.998Z,3.40
2017-12-27T14:08:32.123Z,6.10
2017-12-27T14:10:59.694Z,6.57
2017-12-27T14:13:27.308Z,3.40
2017-12-27T14:15:54.842Z,3.13
2017-12-27T14:18:22.411Z,3.30
2017-12-27T14:20:49.954Z,3.30
2017-12-27T14:23:17.504Z,3.60
2017-12-27T14:25:45.790Z,5.80
2017-12-27T14:28:13.299Z,4.30
2017-12-27T14:30:40.857Z,3.90
2017-12-27T14:33:08.389Z,2.97
2017-12-27T14:35:35.927Z,5.40
2017-12-27T14:38:03.515Z,3.60
2017-12-27T14:40:31.088Z,3.30
2017-12-27T14:42:58.756Z,3.27
2017-12-27T14:45:26.265Z,3.57
2017-12-27T14:47:53.802Z,3.93
2017-12-27T14:50:21.350Z,4.50
2017-12-27T14:52:48.893Z,3.70
2017-12-27T14:55:16.462Z,4.50
2017-12-27T14:57:44.063Z,4.30
2017-12-27T15:00:12.397Z,4.23
2017-12-27T15:02:39.913Z,7.10
2017-12-27T15:05:08.905Z,3.93
2017-12-27T15:07:36.423Z,3.87
2017-12-27T15:10:04.654Z,3.60
2017-12-27T15:12:32.238Z,8.03
2017-12-27T15:15:00.099Z,5.07
2017-12-27T15:17:27.659Z,3.33
2017-12-27T15:19:55.259Z,7.17
2017-12-27T15:22:22.788Z,3.83
2017-12-27T15:24:50.323Z,4.10
2017-12-27T15:27:17.886Z,4.00
2017-12-27T15:29:46.711Z,3.77
2017-12-27T15:32:14.622Z,3.60
2017-12-27T15:34:42.223Z,3.40
2017-12-27T15:37:09.758Z,3.00
2017-12-27T15:39:37.363Z,4.73
2017-12-27T15:42:04.891Z,3.50
2017-12-27T15:44:32.413Z,4.03
2017-12-27T15:47:00.070Z,5.30
2017-12-27T15:49:28.443Z,4.40
2017-12-27T15:51:56.816Z,6.73
2017-12-27T15:54:24.366Z,7.50
2017-12-27T15:56:51.964Z,4.97
2017-12-27T15:59:19.531Z,4.70
2017-12-27T16:01:47.113Z,5.80
2017-12-27T16:04:14.711Z,7.20
2017-12-27T16:06:42.247Z,5.40
2017-12-27T16:09:09.790Z,4.70
2017-12-27T16:11:37.371Z,4.97
2017-12-27T16:14:04.948Z,4.23
2017-12-27T16:16:32.501Z,7.10
2017-12-27T16:19:00.095Z,5.27
2017-12-27T16:21:28.505Z,7.67
2017-12-27T16:23:56.093Z,7.60
2017-12-27T16:26:23.674Z,6.07
2017-12-27T16:28:51.228Z,5.60
2017-12-27T16:31:18.783Z,12.87
2017-12-27T16:33:46.333Z,5.60
2017-12-27T16:36:13.961Z,5.37
2017-12-27T16:38:41.526Z,5.60
2017-12-27T16:41:09.071Z,8.93
2017-12-27T16:43:36.619Z,5.27
2017-12-27T16:46:04.216Z,7.00
2017-12-27T16:48:31.767Z,6.37
2017-12-27T16:50:59.337Z,7.43
2017-12-27T16:53:27.311Z,5.30
2017-12-27T16:55:54.838Z,6.10
2017-12-27T16:58:22.423Z,7.13
2017-12-27T17:00:50.117Z,6.70
2017-12-27T17:03:18.504Z,6.57
2017-12-27T17:05:46.085Z,8.20
2017-12-27T17:08:14.444Z,6.20
2017-12-27T17:10:41.966Z,7.93
2017-12-27T17:13:09.492Z,8.03
2017-12-27T17:15:37.057Z,8.70
2017-12-27T17:18:04.606Z,7.33
2017-12-27T17:20:32.164Z,7.53
2017-12-27T17:23:01.430Z,5.60
2017-12-27T17:25:29.018Z,7.00
2017-12-27T17:27:57.352Z,8.90
2017-12-27T17:30:25.155Z,6.77
2017-12-27T17:32:52.746Z,6.47
2017-12-27T17:35:20.315Z,10.47
2017-12-27T17:37:47.874Z,7.77
2017-12-27T17:40:15.448Z,12.63
2017-12-27T17:42:42.974Z,14.40
2017-12-27T17:45:10.521Z,10.83
2017-12-27T17:47:38.919Z,8.83
2017-12-27T17:50:08.678Z,11.00
2017-12-27T17:52:36.265Z,11.87
2017-12-27T17:55:04.631Z,10.30
2017-12-27T17:57:32.911Z,10.30
2017-12-27T18:00:00.425Z,7.80
2017-12-27T18:02:28.010Z,9.33
2017-12-27T18:04:55.640Z,5.07
2017-12-27T18:07:23.184Z,7.60
2017-12-27T18:09:50.952Z,5.60
2017-12-27T18:12:18.478Z,8.77
2017-12-27T18:14:46.867Z,10.97
2017-12-27T18:17:14.413Z,7.10
2017-12-27T18:19:41.951Z,4.87
2017-12-27T18:22:09.514Z,6.33
2017-12-27T18:24:37.049Z,4.63
2017-12-27T18:27:05.195Z,10.07
2017-12-27T18:29:32.769Z,6.33
2017-12-27T18:32:00.393Z,6.27
2017-12-27T18:34:27.924Z,5.60
2017-12-27T18:36:55.500Z,7.37
2017-12-27T18:39:23.039Z,6.37
2017-12-27T18:41:50.616Z,7.77
2017-12-27T18:44:18.214Z,8.67
2017-12-27T18:46:45.753Z,5.50
2017-12-27T18:49:14.114Z,5.20
2017-12-27T18:51:41.733Z,5.30
2017-12-27T18:54:09.287Z,4.77
2017-12-27T18:56:36.818Z,6.07
2017-12-27T18:59:05.129Z,8.90
2017-12-27T19:01:32.715Z,5.27
2017-12-27T19:04:00.243Z,8.07
2017-12-27T19:06:27.781Z,6.37
2017-12-27T19:08:56.119Z,7.13
2017-12-27T19:11:23.649Z,6.33
2017-12-27T19:13:51.220Z,6.37
2017-12-27T19:16:19.396Z,5.60
2017-12-27T19:18:47.312Z,5.20
2017-12-27T19:21:14.899Z,4.40
2017-12-27T19:23:42.498Z,4.73
2017-12-27T19:26:10.027Z,5.73
2017-12-27T19:28:37.570Z,5.40
2017-12-27T19:31:05.125Z,7.63
2017-12-27T19:33:32.659Z,5.77
2017-12-27T19:36:00.232Z,5.40
2017-12-27T19:38:28.579Z,5.23
2017-12-27T19:40:56.134Z,6.20
2017-12-27T19:43:23.762Z,5.33
2017-12-27T19:45:51.292Z,5.70
2017-12-27T19:48:19.610Z,6.97
2017-12-27T19:50:47.157Z,7.00
2017-12-27T19:53:14.714Z,5.60
2017-12-27T19:55:42.274Z,5.83
2017-12-27T19:58:10.045Z,5.60
2017-12-27T20:00:37.557Z,5.43
2017-12-27T20:03:05.085Z,5.43
2017-12-27T20:05:32.642Z,6.47
2017-12-27T20:08:00.166Z,9.03
2017-12-27T20:10:27.738Z,8.70
2017-12-27T20:12:55.305Z,7.93
2017-12-27T20:15:22.940Z,7.50
2017-12-27T20:17:50.491Z,7.77
2017-12-27T20:20:18.035Z,6.67
2017-12-27T20:22:45.618Z,9.80
2017-12-27T20:25:13.245Z,8.73
2017-12-27T20:27:40.792Z,6.87
2017-12-27T20:30:08.361Z,7.37
2017-12-27T20:32:35.984Z,7.47
2017-12-27T20:35:03.639Z,9.53
2017-12-27T20:37:31.223Z,8.27
2017-12-27T20:39:58.752Z,6.73
2017-12-27T20:42:26.291Z,7.60
2017-12-27T20:44:53.846Z,7.53
2017-12-27T20:47:21.384Z,8.23
2017-12-27T20:49:50.028Z,9.10
2017-12-27T20:52:17.625Z,9.90
2017-12-27T20:54:45.237Z,8.23
2017-12-27T20:57:12.793Z,10.13
2017-12-27T20:59:40.351Z,11.70
2017-12-27T21:02:07.913Z,9.03
2017-12-27T21:04:35.486Z,8.70
2017-12-27T21:07:03.089Z,10.13
2017-12-27T21:09:30.624Z,8.80
2017-12-27T21:11:58.201Z,12.57
2017-12-27T21:14:25.774Z,8.27
2017-12-27T21:16:53.320Z,9.50
2017-12-27T21:19:20.856Z,8.37
2017-12-27T21:21:48.421Z,9.23
2017-12-27T21:24:15.987Z,8.07
2017-12-27T21:26:43.535Z,8.30
2017-12-27T21:29:11.120Z,9.70
2017-12-27T21:31:38.689Z,8.50
2017-12-27T21:34:06.640Z,9.00
2017-12-27T21:36:34.370Z,9.93
2017-12-27T21:39:01.925Z,10.07
2017-12-27T21:41:29.665Z,7.73
2017-12-27T21:43:57.257Z,10.73
2017-12-27T21:46:24.934Z,10.33
2017-12-27T21:48:58.221Z,9.60
2017-12-27T21:51:25.772Z,13.40
2017-12-27T21:53:53.350Z,11.33
2017-12-27T21:56:20.879Z,8.70
2017-12-27T21:58:54.039Z,6.80
2017-12-27T22:01:27.988Z,11.37
2017-12-27T22:03:55.677Z,9.13
2017-12-27T22:06:23.207Z,17.43
2017-12-27T22:08:50.749Z,8.80
2017-12-27T22:11:18.342Z,7.63
2017-12-27T22:13:48.179Z,10.70
2017-12-27T22:16:15.779Z,10.30
2017-12-27T22:18:44.066Z,9.80
2017-12-27T22:21:12.400Z,10.20
2017-12-27T22:23:39.932Z,10.13
2017-12-27T22:26:07.489Z,6.77
2017-12-27T22:28:35.037Z,6.60
2017-12-27T22:31:02.598Z,6.07
2017-12-27T22:33:30.111Z,7.33
2017-12-27T22:35:57.702Z,10.40
2017-12-27T22:38:26.016Z,6.80
2017-12-27T22:40:53.526Z,9.77
2017-12-27T22:43:21.864Z,5.77
2017-12-27T22:45:49.442Z,7.10
2017-12-27T22:48:17.006Z,13.00
2017-12-27T22:50:44.546Z,6.93
2017-12-27T22:53:13.961Z,11.23
2017-12-27T22:55:41.518Z,7.57
2017-12-27T22:58:09.046Z,5.90
2017-12-27T23:00:36.648Z,9.20
2017-12-27T23:03:04.170Z,6.30
2017-12-27T23:05:31.725Z,6.97
2017-12-27T23:07:59.295Z,5.97
2017-12-27T23:10:26.825Z,7.83
2017-12-27T23:12:54.403Z,5.20
2017-12-27T23:15:22.134Z,5.87
2017-12-27T23:17:49.671Z,4.87
2017-12-27T23:20:17.218Z,5.07
2017-12-27T23:22:44.785Z,4.10
2017-12-27T23:25:12.314Z,4.20
2017-12-27T23:27:39.886Z,5.43
2017-12-27T23:30:07.400Z,5.63
2017-12-27T23:32:35.694Z,6.03
2017-12-27T23:35:03.306Z,5.17
2017-12-27T23:37:31.341Z,3.87
2017-12-27T23:39:58.912Z,4.87
2017-12-27T23:42:26.467Z,4.87
2017-12-27T23:44:54.005Z,6.07
2017-12-27T23:47:21.577Z,4.33
2017-12-27T23:49:49.103Z,4.70
2017-12-27T23:52:16.727Z,5.33
2017-12-27T23:54:44.392Z,5.40
2017-12-27T23:57:11.989Z,7.23
2017-12-27T23:59:40.359Z,5.47
